Time;durP1;ratioP1;P1;durP2;ratioP2;P2;SDS_P1;SDS_P2;PMS_P1;PMS_P2;Temp;Humidity;BMP_temperature;BMP_pressure;BME280_temperature;BME280_humidity;BME280_pressure;Samples;Min_cycle;Max_cycle;Signal;HPM_P1;HPM_P2
2021/03/30 00:00:42;;;;;;;1.20;0.93;;;;;;;15.48;40.48;101305.94;4254511;33;36659;-84
2021/03/30 00:03:11;;;;;;;1.15;0.88;;;;;;;15.33;41.63;101300.12;4280573;33;36553;-83
2021/03/30 00:05:39;;;;;;;1.40;1.30;;;;;;;15.30;41.44;101291.47;4267691;33;34018;-83
2021/03/30 00:08:06;;;;;;;2.05;1.80;;;;;;;15.22;41.68;101292.13;4267306;33;33167;-84
2021/03/30 00:10:40;;;;;;;2.40;1.52;;;;;;;15.29;41.55;101290.59;4266529;33;36364;-82
2021/03/30 00:13:09;;;;;;;2.42;1.25;;;;;;;15.32;41.45;101293.03;4277892;33;34301;-83
2021/03/30 00:15:37;;;;;;;1.25;1.15;;;;;;;15.31;41.49;101299.38;4279595;33;33330;-83
2021/03/30 00:18:04;;;;;;;2.20;1.50;;;;;;;15.31;41.58;101295.88;4286450;33;34146;-84
2021/03/30 00:20:32;;;;;;;1.30;1.00;;;;;;;15.15;41.42;101291.00;4267480;33;35024;-81
2021/03/30 00:22:59;;;;;;;2.25;0.82;;;;;;;15.25;41.22;101291.00;4266746;33;33496;-83
2021/03/30 00:25:27;;;;;;;0.95;0.95;;;;;;;15.30;40.86;101297.69;4269257;33;33633;-84
2021/03/30 00:27:55;;;;;;;2.62;1.27;;;;;;;15.17;41.39;101297.06;4282609;33;33719;-81
2021/03/30 00:30:23;;;;;;;1.65;1.20;;;;;;;15.26;41.09;101290.03;4272068;33;35616;-84
2021/03/30 00:32:50;;;;;;;2.03;1.83;;;;;;;15.30;40.99;101292.31;4269966;33;36204;-83
2021/03/30 00:35:19;;;;;;;5.53;2.03;;;;;;;15.36;40.79;101294.47;4267799;33;32995;-83
2021/03/30 00:37:48;;;;;;;1.02;1.02;;;;;;;15.30;40.87;101292.31;4267065;33;33286;-84
2021/03/30 00:40:16;;;;;;;2.33;1.92;;;;;;;15.21;41.12;101284.25;4252241;33;36372;-83
2021/03/30 00:42:43;;;;;;;1.83;1.62;;;;;;;15.09;41.74;101296.03;4270771;33;34286;-81
2021/03/30 00:45:13;;;;;;;1.35;1.20;;;;;;;15.20;41.47;101283.38;4278926;33;32767;-83
2021/03/30 00:47:47;;;;;;;1.50;0.73;;;;;;;15.20;41.41;101290.59;4281270;33;33801;-84
2021/03/30 00:50:23;;;;;;;1.40;0.95;;;;;;;15.17;41.38;101282.81;4266797;33;36659;-82
2021/03/30 00:52:51;;;;;;;0.75;0.75;;;;;;;15.18;41.16;101285.34;4268539;33;35360;-83
2021/03/30 00:55:21;;;;;;;0.80;0.80;;;;;;;15.17;41.21;101282.81;4266757;33;33831;-84
2021/03/30 00:57:49;;;;;;;1.52;1.42;;;;;;;15.16;41.27;101284.66;4278810;33;33152;-84
2021/03/30 01:00:18;;;;;;;1.23;1.10;;;;;;;15.21;41.14;101286.94;4281691;33;34790;-85
2021/03/30 01:02:45;;;;;;;0.68;0.68;;;;;;;15.21;41.07;101287.75;4268937;33;34154;-81
2021/03/30 01:05:14;;;;;;;1.17;1.15;;;;;;;15.23;40.96;101293.00;4279393;33;33412;-83
2021/03/30 01:07:55;;;;;;;1.20;0.75;;;;;;;15.18;41.07;101288.03;4285555;33;35031;-83
2021/03/30 01:10:40;;;;;;;0.80;0.80;;;;;;;15.13;41.38;101286.75;4277571;33;35817;-80
2021/03/30 01:14:00;;;;;;;1.40;1.12;;;;;;;14.96;42.23;101290.09;4277898;33;35133;-83
2021/03/30 01:16:53;;;;;;;1.45;0.70;;;;;;;15.16;41.83;101292.69;4266717;33;33362;-84
2021/03/30 01:19:54;;;;;;;1.25;1.17;;;;;;;15.14;41.62;101289.28;4268247;33;33107;-83
2021/03/30 01:22:50;;;;;;;0.77;0.77;;;;;;;15.12;41.49;101293.09;4278618;33;33475;-83
2021/03/30 01:25:18;;;;;;;4.55;0.77;;;;;;;15.11;41.43;101283.38;4278703;33;33371;-84
2021/03/30 01:27:50;;;;;;;0.77;0.77;;;;;;;15.06;41.42;101291.81;4275751;33;33470;-83
2021/03/30 01:30:19;;;;;;;2.05;1.05;;;;;;;15.07;41.29;101295.34;4280176;33;34039;-84
2021/03/30 01:33:15;;;;;;;1.80;1.12;;;;;;;15.10;41.20;101289.69;4281330;33;35218;-84
2021/03/30 01:35:46;;;;;;;1.33;1.23;;;;;;;15.13;41.10;101281.41;4267363;33;34437;-83
2021/03/30 01:38:15;;;;;;;1.08;0.62;;;;;;;15.04;41.42;101280.38;4267940;33;32728;-84
2021/03/30 01:40:43;;;;;;;1.95;0.88;;;;;;;15.21;41.08;101281.56;4280620;33;33191;-85
2021/03/30 01:43:12;;;;;;;0.55;0.55;;;;;;;15.17;41.27;101277.44;4266859;33;34853;-82
2021/03/30 01:45:40;;;;;;;1.23;0.68;;;;;;;15.13;41.42;101270.69;4279189;33;35755;-82
2021/03/30 01:48:09;;;;;;;3.30;1.37;;;;;;;15.06;41.82;101275.75;4277876;33;33272;-84
2021/03/30 01:50:40;;;;;;;1.40;0.60;;;;;;;15.18;42.33;101271.09;4278482;33;35382;-84
2021/03/30 01:53:09;;;;;;;1.40;0.60;;;;;;;15.14;42.48;101264.31;4267570;33;35659;-83
2021/03/30 01:55:37;;;;;;;1.85;1.15;;;;;;;15.14;42.38;101265.16;4279476;33;35077;-84
2021/03/30 01:58:07;;;;;;;2.15;1.10;;;;;;;15.13;42.41;101263.47;4267873;33;33101;-84
2021/03/30 02:00:36;;;;;;;1.87;1.00;;;;;;;15.30;42.87;101264.66;4267158;33;33327;-84
2021/03/30 02:03:06;;;;;;;2.10;1.02;;;;;;;15.25;42.79;101261.53;4282328;33;36087;-84
2021/03/30 02:05:34;;;;;;;3.90;1.23;;;;;;;15.16;43.30;101257.00;4280817;33;34308;-84
2021/03/30 02:08:02;;;;;;;2.20;1.10;;;;;;;15.07;44.35;101265.84;4278921;33;33857;-81
2021/03/30 02:10:34;;;;;;;1.23;0.77;;;;;;;15.08;44.52;101263.03;4265467;33;33405;-85
2021/03/30 02:13:05;;;;;;;0.60;0.55;;;;;;;15.08;45.26;101267.53;4278396;33;35623;-81
2021/03/30 02:15:33;;;;;;;0.62;0.60;;;;;;;15.26;47.21;101257.84;4278315;33;34294;-85
2021/03/30 02:18:05;;;;;;;1.87;1.33;;;;;;;15.07;47.43;101257.81;4267044;33;33980;-84
2021/03/30 02:20:42;;;;;;;0.47;0.47;;;;;;;14.94;47.99;101263.41;4276337;33;36418;-84
2021/03/30 02:23:11;;;;;;;1.17;1.10;;;;;;;14.91;47.82;101249.44;4270355;33;34951;-84
2021/03/30 02:25:40;;;;;;;0.75;0.75;;;;;;;14.97;47.42;101251.59;4266215;33;33632;-85
2021/03/30 02:28:11;;;;;;;1.05;1.05;;;;;;;14.99;47.25;101247.78;4278775;33;32598;-84
2021/03/30 02:30:41;;;;;;;3.33;2.67;;;;;;;14.85;50.03;101256.19;4267718;33;34649;-85
2021/03/30 02:33:13;;;;;;;1.75;0.93;;;;;;;14.87;50.19;101256.94;4279912;33;34324;-84
2021/03/30 02:35:41;;;;;;;1.70;1.10;;;;;;;14.87;48.67;101251.56;4278852;33;34268;-84
2021/03/30 02:38:09;;;;;;;1.05;1.05;;;;;;;15.02;46.87;101241.31;4275284;33;33257;-81
2021/03/30 02:40:37;;;;;;;1.17;0.88;;;;;;;14.82;47.88;101244.91;4265520;33;33824;-85
2021/03/30 02:43:06;;;;;;;0.57;0.57;;;;;;;14.84;48.15;101251.00;4266563;33;35232;-84
2021/03/30 02:45:35;;;;;;;1.52;1.40;;;;;;;14.86;47.66;101249.84;4278356;33;35145;-84
2021/03/30 02:48:07;;;;;;;2.22;1.15;;;;;;;14.72;48.79;101254.72;4265042;33;33177;-83
2021/03/30 02:50:36;;;;;;;1.37;1.15;;;;;;;14.70;49.07;101248.66;4280065;33;34881;-85
2021/03/30 02:53:04;;;;;;;2.35;1.17;;;;;;;14.44;50.13;101248.28;4269223;33;36809;-84
2021/03/30 02:55:33;;;;;;;1.37;0.52;;;;;;;14.46;49.62;101243.63;4285490;33;34590;-85
2021/03/30 02:58:01;;;;;;;1.00;0.98;;;;;;;14.41;50.26;101245.03;4256133;33;32822;-81
2021/03/30 03:00:28;;;;;;;;;;;;;;;14.65;48.94;101250.91;4278391;33;33838;-84
2021/03/30 03:03:09;;;;;;;0.55;0.55;;;;;;;14.57;48.63;101242.72;4277081;33;35200;-84
2021/03/30 03:05:38;;;;;;;1.42;1.10;;;;;;;14.60;48.36;101245.97;4269272;33;33316;-84
2021/03/30 03:08:06;;;;;;;0.80;0.50;;;;;;;14.68;48.04;101248.81;4267755;33;32998;-82
2021/03/30 03:10:34;;;;;;;;;;;;;;;14.60;48.34;101245.97;4263814;33;33876;-83
2021/03/30 03:13:03;;;;;;;3.05;1.15;;;;;;;14.60;49.00;101239.75;4267064;33;34518;-84
2021/03/30 03:15:32;;;;;;;0.73;0.45;;;;;;;14.46;49.24;101240.13;4277804;33;34250;-82
2021/03/30 03:17:59;;;;;;;0.73;0.57;;;;;;;14.58;48.87;101237.19;4265950;33;33041;-84
2021/03/30 03:20:27;;;;;;;1.83;1.30;;;;;;;14.60;48.54;101243.28;4275662;33;33289;-85
2021/03/30 03:22:55;;;;;;;1.92;1.30;;;;;;;14.61;48.35;101236.09;4265686;33;35628;-83
2021/03/30 03:25:23;;;;;;;1.95;1.35;;;;;;;14.66;48.26;101239.22;4276853;33;36312;-82
2021/03/30 03:27:50;;;;;;;0.85;0.68;;;;;;;14.67;48.42;101243.59;4265859;33;34604;-81
2021/03/30 03:30:18;;;;;;;5.25;1.90;;;;;;;14.62;48.58;101240.47;4275105;33;34706;-83
2021/03/30 03:32:48;;;;;;;0.93;0.62;;;;;;;14.61;48.41;101233.41;4257013;33;35583;-81
2021/03/30 03:35:19;;;;;;;4.12;2.08;;;;;;;14.63;48.03;101236.78;4279502;33;33650;-85
2021/03/30 03:37:47;;;;;;;2.53;0.95;;;;;;;14.63;47.88;101234.13;4268879;33;33659;-85
2021/03/30 03:40:15;;;;;;;2.37;0.62;;;;;;;14.55;47.83;101237.47;4254093;33;34695;-85
2021/03/30 03:42:44;;;;;;;1.83;1.20;;;;;;;14.58;47.74;101233.69;4269653;33;36225;-84
2021/03/30 03:45:12;;;;;;;2.30;1.08;;;;;;;14.53;47.93;101241.25;4268738;33;33766;-84
2021/03/30 03:47:40;;;;;;;1.87;1.17;;;;;;;14.60;47.61;101237.94;4257937;33;33770;-85
2021/03/30 03:50:09;;;;;;;1.25;1.12;;;;;;;14.63;47.41;101236.78;4268284;33;34213;-83
2021/03/30 03:52:42;;;;;;;0.35;0.30;;;;;;;14.66;47.17;101233.87;4267537;33;34214;-85
2021/03/30 03:55:13;;;;;;;1.75;1.52;;;;;;;14.61;47.16;101231.59;4268387;33;34010;-83
2021/03/30 03:57:50;;;;;;;2.92;0.95;;;;;;;14.64;47.11;101231.31;4267386;33;34388;-82
2021/03/30 04:00:20;;;;;;;1.25;1.15;;;;;;;14.64;47.18;101231.31;4266349;33;34210;-82
2021/03/30 04:03:20;;;;;;;3.83;1.40;;;;;;;14.65;47.20;101234.84;4270901;33;34944;-81
2021/03/30 04:05:59;;;;;;;1.10;0.73;;;;;;;14.69;46.90;101231.78;4266422;33;34825;-82
2021/03/30 04:08:29;;;;;;;1.25;1.10;;;;;;;14.74;46.73;101224.16;4285256;33;33156;-81
2021/03/30 04:11:00;;;;;;;2.35;1.77;;;;;;;14.63;47.50;101226.09;4268105;33;33379;-85
2021/03/30 04:13:31;;;;;;;5.53;1.95;;;;;;;14.65;47.68;101218.78;4245945;33;35590;-84
2021/03/30 04:16:01;;;;;;;0.90;0.90;;;;;;;14.71;47.73;101215.53;4267487;33;33858;-84
2021/03/30 04:18:34;;;;;;;1.00;0.95;;;;;;;14.65;47.97;101210.75;4267055;33;34246;-85
2021/03/30 04:21:03;;;;;;;5.35;1.23;;;;;;;14.60;48.22;101219.19;4271480;33;34386;-82
2021/03/30 04:23:33;;;;;;;1.20;0.88;;;;;;;14.57;48.45;101213.25;4255947;33;34964;-84
2021/03/30 04:26:01;;;;;;;1.67;0.77;;;;;;;14.62;48.23;101216.34;4268066;33;33570;-85
2021/03/30 04:28:29;;;;;;;1.85;0.82;;;;;;;14.42;48.81;101216.44;4258375;33;34860;-83
2021/03/30 04:30:56;;;;;;;0.80;0.80;;;;;;;14.46;48.05;101224.91;4256921;33;33750;-85
2021/03/30 04:33:25;;;;;;;1.55;0.85;;;;;;;14.57;47.49;101232.81;4272634;33;34617;-81
2021/03/30 04:35:52;;;;;;;0.82;0.82;;;;;;;14.45;47.54;101219.66;4270531;33;34458;-83
2021/03/30 04:38:21;;;;;;;3.20;2.25;;;;;;;14.57;47.05;101229.31;4269071;33;34146;-84
2021/03/30 04:40:54;;;;;;;;;;;;;;;14.60;46.86;101229.91;4249669;33;35117;-83
2021/03/30 04:43:23;;;;;;;2.42;1.15;;;;;;;14.70;46.40;101232.59;4270117;33;35058;-84
2021/03/30 04:45:51;;;;;;;2.40;2.12;;;;;;;14.55;46.83;101231.28;4267836;33;36225;-84
2021/03/30 04:48:19;;;;;;;3.95;1.73;;;;;;;14.61;46.78;101230.72;4269508;33;33854;-83
2021/03/30 04:50:47;;;;;;;1.75;1.40;;;;;;;14.66;46.67;101231.19;4264859;33;33766;-85
2021/03/30 04:53:16;;;;;;;2.28;1.23;;;;;;;14.67;46.50;101232.88;4266885;33;35722;-82
2021/03/30 04:55:43;;;;;;;4.78;1.83;;;;;;;14.66;46.65;101234.69;4268122;33;33620;-84
2021/03/30 04:58:12;;;;;;;3.42;1.40;;;;;;;14.69;46.52;101237.13;4272531;33;34059;-84
2021/03/30 05:00:41;;;;;;;2.03;1.23;;;;;;;14.71;46.44;101235.16;4270971;33;34573;-84
2021/03/30 05:03:09;;;;;;;2.22;1.12;;;;;;;14.80;46.57;101242.38;4267235;33;35604;-83
2021/03/30 05:05:36;;;;;;;1.83;1.12;;;;;;;14.83;47.27;101242.09;4258759;33;34177;-81
2021/03/30 05:08:05;;;;;;;0.93;0.93;;;;;;;14.76;47.57;101237.44;4265218;33;33538;-84
2021/03/30 05:10:35;;;;;;;7.07;1.62;;;;;;;14.82;47.62;101234.19;4271589;33;33959;-84
2021/03/30 05:13:03;;;;;;;0.93;0.68;;;;;;;14.97;47.19;101225.66;4265911;33;34737;-84
2021/03/30 05:15:31;;;;;;;1.50;1.40;;;;;;;14.89;47.54;101243.37;4274085;33;34833;-84
2021/03/30 05:17:58;;;;;;;2.30;2.00;;;;;;;14.73;48.45;101238.53;4282367;33;33332;-84
2021/03/30 05:20:26;;;;;;;1.23;0.88;;;;;;;14.68;48.85;101242.59;4267000;33;33457;-82
2021/03/30 05:22:54;;;;;;;2.58;1.23;;;;;;;14.73;49.30;101237.72;4270852;33;34514;-82
2021/03/30 05:25:21;;;;;;;5.37;1.43;;;;;;;14.84;48.93;101245.62;4266825;33;35708;-84
2021/03/30 05:27:50;;;;;;;1.23;1.12;;;;;;;14.76;49.18;101240.94;4267020;33;33175;-84
2021/03/30 05:30:18;;;;;;;5.43;1.92;;;;;;;14.92;50.68;101235.91;4270000;33;33773;-85
2021/03/30 05:32:47;;;;;;;2.50;1.73;;;;;;;14.99;50.25;101244.25;4275184;33;34782;-84
2021/03/30 05:35:17;;;;;;;0.88;0.88;;;;;;;15.06;50.72;101240.91;4279075;33;34851;-84
2021/03/30 05:37:45;;;;;;;1.48;1.37;;;;;;;14.65;52.63;101251.75;4267390;33;33555;-84
2021/03/30 05:40:14;;;;;;;4.95;2.08;;;;;;;14.98;50.70;101253.28;4282086;33;33456;-84
2021/03/30 05:42:45;;;;;;;1.50;1.17;;;;;;;15.17;49.37;101254.19;4267492;33;35282;-84
2021/03/30 05:45:16;;;;;;;6.12;1.45;;;;;;;14.83;50.16;101244.78;4283440;33;34351;-81
2021/03/30 05:47:44;;;;;;;2.92;0.62;;;;;;;14.95;50.84;101245.50;4267306;33;34579;-84
2021/03/30 05:50:16;;;;;;;4.82;1.25;;;;;;;15.19;49.25;101248.66;4272675;33;33280;-83
2021/03/30 05:55:23;;;;;;;2.55;1.20;;;;;;;15.39;48.03;101258.47;4281743;33;35473;-84
2021/03/30 05:57:54;;;;;;;2.28;0.85;;;;;;;15.38;47.71;101254.94;4270126;33;33309;-84
2021/03/30 06:00:27;;;;;;;1.30;1.20;;;;;;;15.42;48.03;101260.87;4266900;33;33741;-83
2021/03/30 06:03:02;;;;;;;2.45;1.42;;;;;;;15.35;49.27;101265.09;4281777;33;36878;-81
2021/03/30 06:05:30;;;;;;;2.12;1.42;;;;;;;15.47;49.29;101267.50;4265628;33;33972;-85
2021/03/30 06:08:00;;;;;;;4.70;2.17;;;;;;;15.70;50.22;101268.09;4278588;33;35263;-83
2021/03/30 06:10:30;;;;;;;3.12;2.05;;;;;;;15.50;51.12;101271.75;4277395;33;33804;-82
2021/03/30 06:13:03;;;;;;;1.37;1.23;;;;;;;15.62;51.02;101276.00;4271589;33;34814;-85
2021/03/30 06:15:33;;;;;;;0.80;0.60;;;;;;;15.17;52.71;101272.09;4278160;33;34300;-83
2021/03/30 06:18:16;;;;;;;1.30;1.20;;;;;;;15.40;53.86;101274.41;4266661;33;32615;-83
2021/03/30 06:20:44;;;;;;;1.42;1.33;;;;;;;15.33;54.43;101267.06;4278653;33;32625;-83
2021/03/30 06:23:13;;;;;;;2.50;1.52;;;;;;;15.22;53.94;101261.81;4267202;33;35477;-85
2021/03/30 06:25:46;;;;;;;4.68;1.40;;;;;;;15.14;55.71;101272.38;4266408;33;35116;-84
2021/03/30 06:28:27;;;;;;;1.30;1.20;;;;;;;15.24;55.95;101267.87;4266201;33;32725;-84
2021/03/30 06:31:06;;;;;;;1.98;1.83;;;;;;;15.17;56.63;101266.72;4261875;33;34198;-89
2021/03/30 06:33:45;;;;;;;4.37;2.55;;;;;;;15.17;57.29;101274.75;4279277;33;36865;-85
2021/03/30 06:36:21;;;;;;;4.22;3.35;;;;;;;15.30;56.56;101283.41;4260369;33;32809;-89
2021/03/30 06:39:04;;;;;;;5.25;3.47;;;;;;;15.38;56.21;101279.06;4267559;33;34544;-84
2021/03/30 06:44:28;;;;;;;2.97;2.55;;;;;;;15.38;56.60;101279.06;4267494;33;35033;-86
2021/03/30 06:46:57;;;;;;;2.12;2.03;;;;;;;15.43;57.60;101278.66;4265062;33;36046;-88
2021/03/30 06:49:31;;;;;;;3.10;1.40;;;;;;;15.45;56.39;101277.53;4276225;33;33517;-88
2021/03/30 06:51:59;;;;;;;3.58;2.10;;;;;;;15.55;55.80;101289.12;4264333;33;35556;-87
2021/03/30 06:54:28;;;;;;;5.72;2.50;;;;;;;15.65;55.25;101284.59;4267514;33;34743;-85
2021/03/30 06:56:58;;;;;;;3.90;1.65;;;;;;;15.60;55.33;101286.03;4277704;33;35075;-88
2021/03/30 06:59:26;;;;;;;4.40;1.98;;;;;;;15.73;55.83;101286.56;4281335;33;33674;-88
2021/03/30 07:01:56;;;;;;;6.50;2.28;;;;;;;15.76;55.52;101295.19;4254107;33;33644;-86
2021/03/30 07:04:24;;;;;;;3.92;2.62;;;;;;;15.75;54.16;101295.31;4275131;33;34898;-87
2021/03/30 07:06:53;;;;;;;1.33;0.95;;;;;;;15.94;53.88;101293.50;4273271;33;33093;-88
2021/03/30 07:09:23;;;;;;;3.80;2.72;;;;;;;15.97;53.55;101295.06;4254972;33;33123;-88
2021/03/30 07:11:59;;;;;;;2.20;1.75;;;;;;;16.02;53.92;101298.16;4246002;33;33309;-87
2021/03/30 07:14:28;;;;;;;2.35;1.40;;;;;;;16.21;53.91;101290.94;4261449;33;34455;-88
2021/03/30 07:16:56;;;;;;;2.22;1.02;;;;;;;16.12;54.73;101296.28;4256476;33;35064;-86
2021/03/30 07:19:30;;;;;;;5.85;1.95;;;;;;;16.12;54.86;101293.59;4250250;33;33514;-85
2021/03/30 07:22:09;;;;;;;1.73;1.62;;;;;;;16.22;55.35;101292.62;4260413;33;35853;-88
2021/03/30 07:24:55;;;;;;;3.53;2.58;;;;;;;16.21;56.53;101288.25;4264056;33;37588;-87
2021/03/30 07:27:29;;;;;;;3.53;2.00;;;;;;;16.33;56.06;101287.06;4249021;33;34197;-86
2021/03/30 07:30:00;;;;;;;1.60;1.15;;;;;;;16.41;54.51;101284.56;4256428;33;33230;-84
2021/03/30 07:32:41;;;;;;;1.98;1.40;;;;;;;16.54;54.74;101279.69;4256174;33;32057;-85
2021/03/30 07:35:14;;;;;;;3.45;1.52;;;;;;;16.54;54.42;101289.59;4246535;33;35649;-86
2021/03/30 07:38:13;;;;;;;4.10;2.08;;;;;;;16.88;53.22;101293.44;4263169;33;33372;-86
2021/03/30 07:40:42;;;;;;;1.95;1.62;;;;;;;16.96;51.70;101297.06;4250621;33;32674;-86
2021/03/30 07:43:22;;;;;;;1.65;0.95;;;;;;;16.76;50.74;101291.91;4261542;33;32786;-85
2021/03/30 08:20:56;;;;;;;7.07;3.03;;;;;;;17.17;48.54;101318.34;4121735;34;34891;-85
2021/03/30 08:37:50;;;;;;;1.67;1.58;;;;;;;17.00;50.47;101309.22;4138539;34;33663;-85
2021/03/30 08:40:34;;;;;;;1.48;1.37;;;;;;;16.95;48.31;101316.03;4129022;34;33204;-83
2021/03/30 08:43:12;;;;;;;3.00;1.20;;;;;;;17.13;48.53;101316.94;4134890;34;35174;-84
2021/03/30 08:46:04;;;;;;;2.90;2.08;;;;;;;17.20;48.72;101316.22;4131500;34;34709;-85
2021/03/30 08:48:48;;;;;;;2.95;1.95;;;;;;;16.81;49.04;101311.16;4154444;34;33090;-85
2021/03/30 08:51:35;;;;;;;3.70;1.70;;;;;;;17.02;49.80;101315.31;4168610;34;33571;-82
2021/03/30 08:54:10;;;;;;;2.72;0.95;;;;;;;17.08;49.92;101319.25;4157946;34;33816;-81
2021/03/30 08:56:41;;;;;;;1.90;1.65;;;;;;;17.03;51.39;101316.13;4200425;33;33615;-83
2021/03/30 08:59:11;;;;;;;1.85;1.37;;;;;;;17.03;52.59;101332.28;4200996;33;33211;-84
2021/03/30 09:01:42;;;;;;;5.28;1.40;;;;;;;17.18;52.09;101330.81;4222168;33;34332;-84
2021/03/30 09:04:11;;;;;;;1.48;1.37;;;;;;;17.36;51.54;101329.03;4202799;33;35684;-85
2021/03/30 09:06:40;;;;;;;2.15;1.77;;;;;;;17.35;51.74;101325.44;4210057;33;34854;-84
2021/03/30 09:09:23;;;;;;;1.15;0.82;;;;;;;17.13;51.34;101322.31;4221479;33;32990;-83
2021/03/30 09:11:52;;;;;;;1.48;1.37;;;;;;;17.19;51.58;101321.72;4224348;33;34490;-84
2021/03/30 09:14:22;;;;;;;5.45;1.95;;;;;;;17.34;51.36;101320.25;4211697;33;34069;-85
2021/03/30 09:16:52;;;;;;;1.40;1.27;;;;;;;17.46;51.91;101316.38;4224158;33;33938;-84
2021/03/30 09:19:29;;;;;;;1.30;1.20;;;;;;;17.45;50.90;101318.19;4222952;33;33272;-85
2021/03/30 09:22:03;;;;;;;5.47;1.67;;;;;;;17.31;49.98;101328.59;4219801;33;34928;-83
2021/03/30 09:27:42;;;;;;;2.53;1.75;;;;;;;17.49;51.57;101325.00;4219133;33;34832;-85
2021/03/30 09:30:17;;;;;;;1.60;1.37;;;;;;;17.65;50.73;101314.38;4228731;33;33160;-85
2021/03/30 09:32:47;;;;;;;1.70;1.58;;;;;;;18.08;50.91;101317.16;4222866;33;33837;-85
2021/03/30 09:35:19;;;;;;;0.90;0.90;;;;;;;18.39;50.81;101315.72;4224798;33;34795;-85
2021/03/30 09:38:02;;;;;;;2.03;1.83;;;;;;;18.46;50.66;101306.03;4213117;33;32906;-81
2021/03/30 09:40:40;;;;;;;5.90;2.62;;;;;;;18.36;49.85;101308.84;4222296;33;32611;-86
2021/03/30 09:43:14;;;;;;;1.37;0.73;;;;;;;18.63;48.31;101303.28;4225400;33;34998;-84
2021/03/30 09:45:43;;;;;;;1.05;0.95;;;;;;;18.78;48.34;101298.97;4222535;33;35203;-85
2021/03/30 09:48:14;;;;;;;2.17;1.65;;;;;;;18.87;46.54;101298.00;4222297;33;34523;-81
2021/03/30 09:50:47;;;;;;;1.70;1.10;;;;;;;19.13;46.89;101306.03;4222528;33;32287;-85
2021/03/30 09:53:22;;;;;;;1.23;0.90;;;;;;;19.35;43.85;101305.50;4221629;33;34357;-84
2021/03/30 09:55:51;;;;;;;3.97;1.70;;;;;;;19.51;44.98;101303.69;4202085;33;34174;-84
2021/03/30 09:58:29;;;;;;;3.12;1.60;;;;;;;18.60;49.03;101313.53;4221199;33;34909;-82
2021/03/30 10:01:08;;;;;;;1.83;1.55;;;;;;;19.16;47.25;101316.53;4217344;33;33022;-83
2021/03/30 10:03:36;;;;;;;2.80;2.00;;;;;;;18.92;47.20;101314.56;4209997;33;33825;-82
2021/03/30 10:06:21;;;;;;;3.45;1.33;;;;;;;19.26;47.18;101317.28;4224485;33;35169;-82
2021/03/30 10:09:04;;;;;;;2.10;1.90;;;;;;;18.66;46.19;101316.44;4221053;33;33188;-82
2021/03/30 10:11:37;;;;;;;1.45;1.20;;;;;;;19.07;47.09;101306.72;4204731;33;33587;-84
2021/03/30 10:14:19;;;;;;;2.47;1.98;;;;;;;18.75;47.44;101314.63;4220604;33;34409;-84
2021/03/30 10:16:54;;;;;;;3.00;1.37;;;;;;;18.71;46.52;101314.09;4226636;33;33984;-81
2021/03/30 10:19:24;;;;;;;1.85;1.60;;;;;;;18.30;47.42;101306.75;4220771;33;34746;-84
2021/03/30 10:21:54;;;;;;;3.03;1.92;;;;;;;18.44;47.95;101308.03;4211314;33;33490;-84
2021/03/30 10:24:28;;;;;;;2.30;1.70;;;;;;;18.34;47.90;101313.50;4224602;33;32874;-84
2021/03/30 10:27:09;;;;;;;2.10;1.77;;;;;;;18.34;48.13;101301.91;4222020;33;34211;-84
2021/03/30 10:29:42;;;;;;;4.45;2.33;;;;;;;18.34;48.52;101307.28;4213835;33;33367;-82
2021/03/30 10:32:18;;;;;;;1.83;1.33;;;;;;;18.17;48.02;101300.91;4219378;33;34008;-82
2021/03/30 10:34:50;;;;;;;2.50;1.73;;;;;;;18.32;46.50;101298.53;4209207;33;33512;-83
2021/03/30 10:37:25;;;;;;;1.27;1.15;;;;;;;18.59;46.84;101293.00;4221375;33;35391;-85
2021/03/30 10:40:03;;;;;;;2.55;1.15;;;;;;;18.66;45.99;101294.87;4225529;33;33607;-84
2021/03/30 10:42:39;;;;;;;2.55;1.23;;;;;;;18.67;45.01;101284.91;4226571;33;34278;-84
2021/03/30 10:45:16;;;;;;;3.58;1.30;;;;;;;18.69;45.31;101286.47;4232081;33;33644;-84
2021/03/30 10:47:48;;;;;;;3.12;0.73;;;;;;;18.75;44.45;101285.81;4214844;33;33535;-83
2021/03/30 10:50:24;;;;;;;3.22;1.95;;;;;;;19.06;43.87;101286.16;4199188;33;32942;-84
2021/03/30 10:53:09;;;;;;;1.73;1.62;;;;;;;19.33;43.75;101281.37;4209858;33;33634;-82
2021/03/30 10:55:44;;;;;;;0.95;0.85;;;;;;;19.39;45.91;101277.16;4216863;33;32831;-84
2021/03/30 10:58:16;;;;;;;0.70;0.60;;;;;;;19.36;46.11;101274.81;4221972;33;34620;-82
2021/03/30 11:00:54;;;;;;;1.33;0.93;;;;;;;19.85;42.58;101276.56;4219488;33;33129;-82
2021/03/30 11:03:30;;;;;;;1.12;0.60;;;;;;;20.14;42.54;101276.94;4225879;33;33960;-82
2021/03/30 11:06:05;;;;;;;1.23;1.12;;;;;;;20.28;42.80;101273.56;4209816;33;34259;-83
2021/03/30 11:08:45;;;;;;;1.10;1.00;;;;;;;20.09;42.46;101274.75;4226298;33;35921;-82
2021/03/30 11:11:17;;;;;;;0.80;0.75;;;;;;;20.36;40.89;101273.56;4210696;33;33544;-85
2021/03/30 11:14:13;;;;;;;0.70;0.57;;;;;;;20.49;40.99;101276.56;4197747;33;32081;-83
2021/03/30 11:26:42;;;;;;;;;;;;;;;;;;;;;
2021/03/30 11:30:16;;;;;;;1.73;1.12;;;;;;;20.41;42.52;101263.06;4157408;34;33399;-80
2021/03/30 11:33:39;;;;;;;1.60;1.23;;;;;;;19.39;41.96;101264.53;4133571;34;32540;-81
2021/03/30 11:38:00;;;;;;;1.95;1.80;;;;;;;19.52;42.62;101264.06;4144823;34;34512;-83
2021/03/30 11:41:22;;;;;;;4.65;1.73;;;;;;;19.53;45.20;101268.44;4144716;34;34230;-83
2021/03/30 11:48:37;;;;;;;2.12;1.90;;;;;;;19.11;46.12;101252.28;4143387;34;33395;-80
2021/03/30 11:52:11;;;;;;;;;;;;;;;;;;;;;
2021/03/30 11:59:15;;;;;;;7.72;1.90;;;;;;;18.58;46.27;101254.37;4181172;34;33209;-82
2021/03/30 12:02:44;;;;;;;2.00;1.67;;;;;;;18.86;46.03;101250.47;4149929;34;32578;-81
2021/03/30 12:05:45;;;;;;;4.03;2.03;;;;;;;19.11;45.85;101241.47;4200524;33;33807;-80
2021/03/30 12:08:46;;;;;;;2.87;1.77;;;;;;;18.90;45.09;101245.62;4243832;33;35106;-82
2021/03/30 12:11:14;;;;;;;1.02;0.80;;;;;;;18.83;45.02;101237.34;4243153;33;33994;-83
2021/03/30 12:13:43;;;;;;;2.33;1.62;;;;;;;18.90;44.78;101234.81;4258387;33;33491;-83
2021/03/30 12:16:11;;;;;;;2.42;2.03;;;;;;;18.86;45.01;101242.41;4254318;33;34840;-83
2021/03/30 12:18:39;;;;;;;0.82;0.82;;;;;;;19.31;44.83;101232.12;4245152;33;34028;-81
2021/03/30 12:21:08;;;;;;;2.50;1.27;;;;;;;19.40;42.90;101233.81;4251131;33;35005;-82
2021/03/30 12:23:36;;;;;;;3.78;1.12;;;;;;;19.40;43.79;101225.72;4253398;33;33703;-82
2021/03/30 12:26:03;;;;;;;;;;;;;;;20.01;42.15;101219.84;4252672;33;35572;-83
2021/03/30 12:28:32;;;;;;;2.10;1.27;;;;;;;20.44;42.55;101205.94;4247963;33;34065;-81
2021/03/30 12:31:00;;;;;;;10.30;1.58;;;;;;;20.55;40.65;101209.09;4256326;33;32233;-82
2021/03/30 12:33:27;;;;;;;2.62;1.95;;;;;;;20.55;40.58;101211.81;4226673;33;34361;-82
2021/03/30 12:35:57;;;;;;;0.85;0.65;;;;;;;20.84;41.12;101203.91;4233229;33;34511;-83
2021/03/30 12:38:27;;;;;;;1.17;1.08;;;;;;;21.43;39.52;101208.69;4248571;33;33073;-82
2021/03/30 12:40:55;;;;;;;3.03;2.15;;;;;;;21.25;39.24;101208.12;4251912;33;32505;-82
2021/03/30 12:43:22;;;;;;;1.65;0.85;;;;;;;21.78;39.54;101195.41;4237088;33;35536;-82
2021/03/30 12:45:59;;;;;;;3.58;1.65;;;;;;;21.50;38.33;101194.25;4252464;33;35562;-81
2021/03/30 12:48:27;;;;;;;1.00;0.90;;;;;;;21.76;40.32;101199.31;4247765;33;34836;-83
2021/03/30 12:50:56;;;;;;;1.37;1.08;;;;;;;21.80;38.47;101187.94;4249373;33;32834;-82
2021/03/30 12:53:25;;;;;;;2.08;1.50;;;;;;;21.83;38.90;101184.03;4251185;33;33773;-82
2021/03/30 12:55:53;;;;;;;0.77;0.77;;;;;;;21.96;39.28;101181.53;4235776;33;33646;-81
2021/03/30 12:58:23;;;;;;;1.08;0.98;;;;;;;21.87;40.70;101172.63;4257559;33;34187;-82
2021/03/30 13:00:53;;;;;;;0.93;0.93;;;;;;;22.19;39.53;101175.00;4256675;33;35617;-82
2021/03/30 13:03:41;;;;;;;4.03;1.42;;;;;;;22.68;37.01;101173.47;4274789;33;34208;-82
2021/03/30 13:06:19;;;;;;;0.75;0.75;;;;;;;22.64;38.47;101166.72;4266803;33;35471;-82
2021/03/30 13:08:47;;;;;;;1.42;1.08;;;;;;;22.51;37.78;101163.00;4265262;33;34637;-82
2021/03/30 13:11:15;;;;;;;1.90;1.25;;;;;;;22.75;36.18;101163.53;4268741;33;33057;-82
2021/03/30 13:13:46;;;;;;;1.75;0.57;;;;;;;22.86;36.97;101159.50;4256655;33;35488;-83
2021/03/30 13:16:18;;;;;;;1.30;1.00;;;;;;;23.34;37.80;101158.81;4278951;33;35411;-81